Terminal Aerodrome Forecast
Issued by NWS

Home | Current Version | Previous Version | Text Only | Print | Product List | Glossary On
Versions: 1 2 3 4 5 6 7 8 9 10 11 12 13 14 15 16 17
324
FTUS43 KILX 081746
TAFDEC
TAF
KDEC 081746Z 0818/0918 28015G22KT P6SM -SN OVC025
     FM090000 30010KT P6SM BKN025
     FM091400 30008KT P6SM SCT035=

USA.gov is the U.S. government's official web portal to all federal, state and local government web resources and services.